Cordova, AK (99574)

10:19 PM AKDT on June 01, 2015 (GMT -0800)
APRSWXNET | | Change Station
CLOSE
Current Station
Personal Weather Station
Location: Cordova, AK
Elevation: 15 ft
Nearby Weather Stations

Elev 15 ft 60.54 °N, 145.77 °W | Updated 42 minutes ago

Overcast
Overcast
50 °F
Feels Like 50 °F
N
3
Wind Variable Wind from East
Gusts 11.0 mph

Today
High -- | Low -- °F
--% Chance of Precip.
Yesterday
High -- | Low -- °F
Precip. -- in
4:26 AM 10:56 PM
Full, 100% visible
Pressure 29.84 in
Visibility 4.0 miles
Clouds Overcast 1800 ft
Dew Point 45 °F
Humidity 82%
Rainfall in
Snow Depth Not available.
UV 0 out of 12
Pollen Not available.
Air Quality Not available.
Flu Activity Sporadic
METAR PACV 020553Z 00000KT 4SM BR OVC018 09/09 A2984 RMK AO2 SLP105 T00940089 10106 20094 55000

More Conditions Fewer Conditions

Pressure 29.84 in
Visibility 4.0 miles
Clouds Overcast 1800 ft
Dew Point 45 °F
Humidity 82%
Rainfall in
Snow Depth Not available.
UV 0 out of 12
Pollen Not available.
Air Quality Not available.
Flu Activity Sporadic
METAR PACV 020553Z 00000KT 4SM BR OVC018 09/09 A2984 RMK AO2 SLP105 T00940089 10106 20094 55000

More Conditions Fewer Conditions

10-Day Weather Forecast

Almanac

Astronomy

Jun. 01, 2015 Rise Set
Actual Time
Civil Twilight
Nautical Twilight
Astronomical Twilight
Moon
Length of Visible Light
Length of Day
Tomorrow will be .
, % of the Moon is Illuminated

Today's Extremes

State Highs State Lows

Community

WunderPhotos

Upload Photos

1,825,923 photos uploaded!

WunderBlogs® & News

Nearby

Air Quality

  Air Quality AQ Index Pollutant
Not available.

Snow Depth

Station Depth Elevation

Earthquake Activity

City Distance Mag. Time & Date
Minimum magnitude displayed is 2.5.

Coastal Water Temperatures

Place Temperature

Stations

Nearby Weather Stations

Station Location Temp. Windchill Dew Point Humidity Wind Precip. Elev Updated Type